Time;durP1;ratioP1;P1;durP2;ratioP2;P2;SDS_P1;SDS_P2;PMS_P1;PMS_P2;Temp;Humidity;BMP_temperature;BMP_pressure;BME280_temperature;BME280_humidity;BME280_pressure;Samples;Min_cycle;Max_cycle;Signal;HPM_P1;HPM_P2
2024/02/15 00:00:07;;;;;;;58.20;30.10;;;;;;;3.45;96.49;99569.20;273437;1270;23149;-86
2024/02/15 00:06:59;;;;;;;66.50;33.50;;;;;;;3.39;96.79;99565.59;273542;1270;22186;-86
2024/02/15 00:13:02;;;;;;;61.40;30.40;;;;;;;3.38;96.80;99567.57;273358;1272;22219;-86
2024/02/15 00:19:48;;;;;;;61.70;31.10;;;;;;;3.35;97.07;99571.89;273659;1272;23925;-85
2024/02/15 00:26:15;;;;;;;79.50;37.60;;;;;;;3.25;97.17;99570.59;273621;1272;22216;-85
2024/02/15 00:32:41;;;;;;;76.20;37.70;;;;;;;3.16;97.05;99571.21;273539;1272;22223;-85
2024/02/15 00:38:43;;;;;;;58.20;25.80;;;;;;;3.08;97.29;99568.02;270866;1270;22556;-85
2024/02/15 00:45:07;;;;;;;60.60;31.90;;;;;;;3.03;97.56;99565.41;269656;1269;22566;-85
2024/02/15 00:51:09;;;;;;;63.80;32.70;;;;;;;3.02;97.73;99567.88;269843;1269;22542;-85
2024/02/15 00:57:34;;;;;;;70.90;31.00;;;;;;;3.01;98.12;99570.39;271700;1263;22197;-86
2024/02/15 01:03:35;;;;;;;60.90;31.60;;;;;;;2.98;98.45;99579.44;273430;1270;23434;-86
2024/02/15 01:10:20;;;;;;;65.80;32.10;;;;;;;2.97;98.75;99580.02;273344;1278;22247;-86
2024/02/15 01:16:43;;;;;;;67.30;33.10;;;;;;;2.99;99.10;99581.67;272218;1270;23455;-86
2024/02/15 01:23:46;;;;;;;65.20;31.60;;;;;;;3.03;99.13;99580.38;270412;1270;22541;-85
2024/02/15 01:30:31;;;;;;;62.80;31.00;;;;;;;3.09;99.37;99583.36;271113;1270;22305;-85
2024/02/15 01:36:50;;;;;;;58.00;29.80;;;;;;;3.16;99.60;99585.67;270658;1270;25233;-85
2024/02/15 01:42:58;;;;;;;53.30;27.50;;;;;;;3.23;99.42;99584.10;271700;1270;22185;-85
2024/02/15 01:49:01;;;;;;;60.40;31.10;;;;;;;3.26;98.62;99580.65;269755;1270;22514;-85
2024/02/15 01:55:07;;;;;;;63.70;32.60;;;;;;;3.33;99.69;99584.33;273244;1275;22281;-86
2024/02/15 02:01:15;;;;;;;57.50;30.20;;;;;;;3.44;100.00;99587.48;273591;1262;22178;-85
2024/02/15 02:07:42;;;;;;;64.10;31.70;;;;;;;3.49;100.00;99589.66;273618;1272;22869;-86
2024/02/15 02:14:09;;;;;;;67.80;33.20;;;;;;;3.47;100.00;99598.87;273649;1270;22201;-86
2024/02/15 02:20:17;;;;;;;;;;;;;;;3.51;100.00;99600.51;273268;1275;22435;-86
2024/02/15 02:26:22;;;;;;;73.00;37.50;;;;;;;3.57;100.00;99589.81;273531;1271;22239;-86
2024/02/15 05:50:46;;;;;;;60.10;27.30;;;;;;;4.37;100.00;99593.96;268957;1263;22553;-84
2024/02/15 05:57:17;;;;;;;53.00;27.60;;;;;;;4.40;100.00;99597.73;270764;1273;23567;-83
2024/02/15 06:03:26;;;;;;;58.40;27.50;;;;;;;4.44;100.00;99596.59;269310;1271;23210;-82
2024/02/15 06:09:46;;;;;;;53.70;26.30;;;;;;;4.50;100.00;99599.46;269570;1274;22229;-83
2024/02/15 06:16:09;;;;;;;50.20;25.20;;;;;;;4.55;100.00;99600.80;270037;1273;25334;-84
2024/02/15 06:22:12;;;;;;;50.60;25.60;;;;;;;4.61;100.00;99600.20;269124;1270;23675;-83
2024/02/15 06:39:38;;;;;;;53.60;27.30;;;;;;;4.66;100.00;99604.50;269039;1271;24258;-83
2024/02/15 06:41:58;;;;;;;47.20;24.30;;;;;;;4.86;100.00;99613.09;272386;1273;22970;-84
2024/02/15 06:48:00;;;;;;;51.60;25.50;;;;;;;5.01;100.00;99610.85;271987;1274;22574;-84
2024/02/15 06:54:27;;;;;;;59.10;27.50;;;;;;;5.19;100.00;99616.22;269890;1274;23778;-85
2024/02/15 07:00:30;;;;;;;50.10;25.40;;;;;;;5.37;100.00;99619.45;270855;1274;22347;-84
2024/02/15 07:06:54;;;;;;;57.50;29.30;;;;;;;5.51;100.00;99622.67;272762;1275;22251;-84
2024/02/15 07:13:00;;;;;;;57.70;30.00;;;;;;;5.64;100.00;99628.30;269848;1274;22548;-84
2024/02/15 07:19:42;;;;;;;50.70;28.30;;;;;;;5.73;100.00;99624.96;270805;1274;22204;-83
2024/02/15 07:25:53;;;;;;;55.30;28.00;;;;;;;5.82;100.00;99628.42;268814;1274;24240;-83
2024/02/15 07:31:57;;;;;;;56.20;28.90;;;;;;;5.89;100.00;99639.69;270443;1274;22222;-84
2024/02/15 07:38:45;;;;;;;51.00;27.20;;;;;;;5.97;100.00;99641.40;272281;1270;22209;-83
2024/02/15 07:45:07;;;;;;;56.60;31.00;;;;;;;6.04;100.00;99637.73;268697;1274;22237;-85
2024/02/15 07:51:52;;;;;;;49.80;26.40;;;;;;;6.15;100.00;99631.17;269033;1274;23845;-83
2024/02/15 07:58:31;;;;;;;50.00;23.90;;;;;;;6.25;100.00;99627.74;272771;1277;22216;-84
2024/02/15 08:04:34;;;;;;;43.70;22.70;;;;;;;6.39;100.00;99626.86;270217;1274;22572;-84
2024/02/15 08:10:57;;;;;;;46.40;23.30;;;;;;;6.55;100.00;99629.68;268871;1273;22444;-84
2024/02/15 08:16:59;;;;;;;45.50;23.50;;;;;;;6.71;100.00;99630.98;272451;1274;24205;-84
2024/02/15 08:23:01;;;;;;;47.60;24.40;;;;;;;6.83;100.00;99633.28;268833;1273;22553;-83
2024/02/15 08:29:05;;;;;;;40.30;22.00;;;;;;;6.93;100.00;99637.02;268777;1274;22801;-87
2024/02/15 08:35:13;;;;;;;43.30;22.40;;;;;;;7.06;100.00;99636.69;270370;1275;22195;-85
2024/02/15 08:41:30;;;;;;;41.00;22.30;;;;;;;7.19;100.00;99633.55;272681;1274;22341;-84
2024/02/15 08:47:38;;;;;;;42.40;22.40;;;;;;;7.37;100.00;99634.49;269301;1274;23666;-84
2024/02/15 08:53:40;;;;;;;43.00;22.20;;;;;;;7.53;100.00;99634.24;272386;1274;22358;-84
2024/02/15 09:00:17;;;;;;;39.50;19.10;;;;;;;7.67;100.00;99639.24;272884;1265;22195;-84
2024/02/15 09:06:42;;;;;;;;;;;;;;;7.85;100.00;99635.94;272773;1275;22440;-84
2024/02/15 09:13:14;;;;;;;28.00;16.00;;;;;;;7.99;100.00;99629.84;272655;1273;22472;-84
2024/02/15 09:19:18;;;;;;;29.80;16.30;;;;;;;8.21;100.00;99634.02;272724;1274;22253;-84
2024/02/15 09:25:23;;;;;;;32.80;17.20;;;;;;;8.46;100.00;99637.19;272641;1274;22178;-84
2024/02/15 09:32:05;;;;;;;29.20;16.10;;;;;;;8.69;100.00;99642.71;272656;1273;22192;-84
2024/02/15 09:38:16;;;;;;;30.30;15.80;;;;;;;8.89;100.00;99641.34;272064;1273;22224;-85
2024/02/15 09:45:04;;;;;;;29.10;18.90;;;;;;;9.09;100.00;99644.32;272437;1275;23237;-84
2024/02/15 09:51:37;;;;;;;31.50;16.70;;;;;;;9.30;100.00;99642.23;272583;1274;23269;-84
2024/02/15 09:58:00;;;;;;;24.70;13.70;;;;;;;9.50;100.00;99638.22;273070;1280;22199;-85
2024/02/15 10:04:44;;;;;;;22.60;13.80;;;;;;;9.75;100.00;99636.36;272451;1274;22166;-85
2024/02/15 10:11:20;;;;;;;24.60;12.30;;;;;;;10.14;100.00;99631.75;271834;1274;22569;-84
2024/02/15 10:17:47;;;;;;;18.50;11.60;;;;;;;10.47;100.00;99626.79;271869;1273;23673;-84
2024/02/15 10:24:09;;;;;;;9.40;6.50;;;;;;;10.89;100.00;99617.08;272638;1282;22306;-85
2024/02/15 10:31:13;;;;;;;15.00;6.70;;;;;;;11.39;100.00;99612.61;272684;1276;22243;-85
2024/02/15 10:38:54;;;;;;;4.00;2.70;;;;;;;12.24;99.38;99603.00;270820;1287;22324;-86
2024/02/15 10:45:04;;;;;;;5.80;3.00;;;;;;;13.20;95.91;99595.71;270646;1286;22350;-86
2024/02/15 10:51:09;;;;;;;6.10;3.40;;;;;;;13.90;95.56;99584.95;270347;1286;24052;-86
2024/02/15 10:57:25;;;;;;;6.10;3.40;;;;;;;14.17;92.86;99574.44;270422;1273;22331;-85
2024/02/15 11:03:42;;;;;;;5.40;3.10;;;;;;;14.03;88.98;99571.91;270393;1280;23157;-85
2024/02/15 11:10:08;;;;;;;3.20;1.70;;;;;;;13.89;88.31;99572.59;272477;1276;22274;-86
2024/02/15 11:17:13;;;;;;;5.30;2.10;;;;;;;14.04;87.52;99565.30;272739;1275;22293;-86
2024/02/15 11:24:17;;;;;;;5.20;2.50;;;;;;;14.20;86.10;99559.11;272852;1273;22215;-86
2024/02/15 11:31:23;;;;;;;3.40;2.20;;;;;;;14.38;84.91;99560.02;272693;1277;22317;-86
2024/02/15 11:38:34;;;;;;;4.40;2.60;;;;;;;14.57;83.68;99554.67;271597;1274;22557;-85
2024/02/15 11:44:35;;;;;;;6.10;2.60;;;;;;;14.52;84.02;99547.17;271114;1273;22626;-85
2024/02/15 11:50:39;;;;;;;5.50;3.10;;;;;;;14.46;83.35;99541.23;270174;1267;23170;-87
2024/02/15 11:57:07;;;;;;;8.90;5.00;;;;;;;14.25;81.19;99531.31;272536;1275;22248;-86
2024/02/15 12:25:43;;;;;;;12.20;5.50;;;;;;;13.78;79.01;99517.81;272252;1281;23513;-85
2024/02/15 12:32:11;;;;;;;9.40;4.30;;;;;;;13.65;78.30;99516.29;272271;1277;22312;-86
2024/02/15 12:38:38;;;;;;;10.60;4.60;;;;;;;13.55;77.21;99513.31;272749;1257;22277;-86
2024/02/15 12:44:45;;;;;;;7.80;4.50;;;;;;;13.52;77.28;99514.40;272129;1273;23311;-86
2024/02/15 12:51:24;;;;;;;8.60;4.40;;;;;;;13.55;76.89;99508.36;271492;1273;23526;-85
2024/02/15 12:57:28;;;;;;;7.00;4.30;;;;;;;13.44;77.07;99502.48;271231;1273;23272;-87
2024/02/15 13:11:45;;;;;;;7.10;4.00;;;;;;;13.22;75.72;99492.23;270926;1273;25288;-84
2024/02/15 13:18:19;;;;;;;8.10;3.80;;;;;;;13.20;75.87;99485.16;271342;1273;22188;-86
2024/02/15 13:24:29;;;;;;;7.60;4.10;;;;;;;13.23;75.53;99486.20;272474;1274;22232;-86
2024/02/15 13:31:22;;;;;;;9.10;4.40;;;;;;;13.22;75.85;99484.00;272528;1274;22220;-86
2024/02/15 13:37:24;;;;;;;12.40;4.50;;;;;;;13.26;75.83;99478.14;269861;1271;22692;-85
2024/02/15 13:43:28;;;;;;;6.90;4.30;;;;;;;13.26;75.73;99475.63;269719;1273;23220;-86
2024/02/15 13:50:55;;;;;;;11.90;6.30;;;;;;;13.20;75.43;99474.87;272225;1278;22212;-86
2024/02/15 13:57:48;;;;;;;6.90;4.40;;;;;;;13.10;75.40;99475.02;272492;1259;22332;-88
2024/02/15 14:04:49;;;;;;;6.80;4.20;;;;;;;12.99;75.30;99468.15;272774;1273;22328;-85
2024/02/15 14:11:58;;;;;;;8.00;4.60;;;;;;;12.81;75.11;99466.55;271907;1275;22234;-86
2024/02/15 14:18:28;;;;;;;10.40;4.40;;;;;;;12.63;75.21;99474.07;272350;1274;22207;-86
2024/02/15 14:24:55;;;;;;;8.10;4.50;;;;;;;12.45;75.31;99478.81;271533;1274;22245;-86
2024/02/15 14:37:19;;;;;;;8.80;4.80;;;;;;;12.28;76.09;99476.04;271637;1273;22448;-86
2024/02/15 14:43:22;;;;;;;6.30;4.40;;;;;;;12.20;76.18;99475.08;271985;1273;22334;-85
2024/02/15 14:50:16;;;;;;;9.70;4.50;;;;;;;12.09;76.09;99477.83;271941;1273;295798;-86
2024/02/15 15:18:24;;;;;;;13.80;4.10;;;;;;;11.51;77.42;99489.38;271549;1273;22425;-87
2024/02/15 15:25:30;;;;;;;7.80;4.30;;;;;;;11.37;78.05;99488.76;272828;1275;22591;-86
2024/02/15 15:32:01;;;;;;;16.20;5.30;;;;;;;11.11;78.24;99494.61;272687;1274;22215;-86
2024/02/15 15:38:39;;;;;;;12.20;3.80;;;;;;;10.83;78.94;99494.35;272703;1282;23439;-86
2024/02/15 15:45:01;;;;;;;;;;;;;;;10.62;79.68;99500.92;272816;1274;22434;-85
2024/02/15 15:51:06;;;;;;;8.90;5.50;;;;;;;10.39;80.50;99501.73;272316;1274;22214;-85
2024/02/15 15:57:55;;;;;;;19.50;7.20;;;;;;;10.18;81.20;99499.66;272610;1273;22269;-85
2024/02/15 16:04:37;;;;;;;14.60;6.20;;;;;;;9.95;82.00;99503.44;272463;1274;22307;-85
2024/02/15 16:11:00;;;;;;;16.00;6.70;;;;;;;9.78;82.60;99508.98;272517;1274;22270;-86
2024/02/15 16:17:11;;;;;;;13.10;7.20;;;;;;;9.63;83.27;99509.43;271611;1273;22594;-85
2024/02/15 16:23:54;;;;;;;16.90;8.00;;;;;;;9.50;83.66;99512.12;271463;1274;22246;-84
2024/02/15 16:30:17;;;;;;;19.30;10.20;;;;;;;9.46;84.19;99512.33;272519;1274;23054;-85
2024/02/15 16:36:56;;;;;;;19.80;10.30;;;;;;;9.42;84.44;99511.02;272570;1275;22189;-84
2024/02/15 16:42:58;;;;;;;16.40;10.90;;;;;;;9.39;84.97;99519.05;272106;1273;23806;-85
2024/02/15 16:49:40;;;;;;;22.40;11.60;;;;;;;9.36;85.33;99521.92;271908;1273;23152;-85
2024/02/15 16:56:27;;;;;;;22.90;11.60;;;;;;;9.25;85.38;99527.59;272323;1273;22300;-85
2024/02/15 17:02:38;;;;;;;22.50;13.50;;;;;;;8.98;85.68;99536.41;270203;1273;24603;-84
2024/02/15 17:09:03;;;;;;;25.10;13.60;;;;;;;8.66;86.36;99542.13;270859;1264;24937;-85
2024/02/15 17:15:07;;;;;;;21.50;11.60;;;;;;;8.33;86.96;99549.77;271031;1271;22930;-85
2024/02/15 17:21:47;;;;;;;24.20;13.10;;;;;;;7.94;87.20;99560.81;272709;1274;23322;-85
2024/02/15 17:28:13;;;;;;;24.90;12.40;;;;;;;7.73;88.91;99564.61;272235;1274;22254;-85
2024/02/15 17:34:57;;;;;;;28.50;13.10;;;;;;;7.64;89.90;99571.88;272554;1267;22240;-85
2024/02/15 17:41:43;;;;;;;27.80;14.90;;;;;;;7.52;90.46;99577.63;271077;1273;22277;-85
2024/02/15 17:48:20;;;;;;;54.10;25.40;;;;;;;7.37;91.15;99583.98;272510;1274;22207;-84
2024/02/15 18:01:52;;;;;;;;;;;;;;;6.93;92.09;99580.22;271763;1269;22509;-85
2024/02/15 18:07:54;;;;;;;52.40;24.90;;;;;;;6.71;93.20;99579.14;272038;1274;22592;-84
2024/02/15 18:13:59;;;;;;;47.30;27.90;;;;;;;6.56;93.96;99578.31;269954;1273;23218;-83
2024/02/15 18:20:31;;;;;;;51.70;25.10;;;;;;;6.42;94.24;99579.81;272691;1274;23011;-85
2024/02/15 18:26:34;;;;;;;55.30;30.90;;;;;;;6.23;93.80;99581.77;272359;1271;22275;-84
2024/02/15 18:33:18;;;;;;;59.10;30.80;;;;;;;6.01;94.52;99578.06;272216;1273;22234;-84
2024/02/15 18:40:00;;;;;;;74.80;39.00;;;;;;;5.80;94.69;99580.61;272713;1281;22207;-85
2024/02/15 18:46:04;;;;;;;108.60;62.00;;;;;;;5.65;95.05;99580.41;271250;1274;22552;-85
2024/02/15 18:52:06;;;;;;;70.60;38.30;;;;;;;5.56;96.13;99584.80;269906;1273;22567;-86
2024/02/15 18:58:08;;;;;;;57.60;32.60;;;;;;;5.48;96.20;99589.83;270937;1274;23069;-88
2024/02/15 19:04:37;;;;;;;57.20;31.60;;;;;;;5.29;96.27;99594.67;270261;1268;24250;-84
2024/02/15 19:11:19;;;;;;;66.50;35.60;;;;;;;5.13;97.01;99606.66;272318;1274;22571;-85
2024/02/15 19:17:41;;;;;;;62.90;34.30;;;;;;;4.99;97.53;99616.27;270930;1274;22271;-85
2024/02/15 19:24:16;;;;;;;58.50;31.00;;;;;;;4.84;98.10;99609.89;272519;1281;22182;-85
2024/02/15 19:31:00;;;;;;;62.20;34.90;;;;;;;4.71;98.31;99609.34;272086;1271;22431;-85
2024/02/15 19:37:20;;;;;;;79.40;44.00;;;;;;;4.55;98.58;99612.67;272603;1274;22177;-85
2024/02/15 19:44:03;;;;;;;68.60;37.20;;;;;;;4.43;99.03;99612.96;271786;1273;22241;-83
2024/02/15 19:50:06;;;;;;;85.20;40.80;;;;;;;4.32;99.41;99613.25;271939;1273;22717;-86
2024/02/15 19:56:34;;;;;;;69.30;35.60;;;;;;;4.18;99.49;99614.38;263073;1273;10002048;-85
2024/02/15 20:02:58;;;;;;;73.00;38.10;;;;;;;4.05;99.66;99616.62;269813;1273;23077;-84
2024/02/15 20:09:41;;;;;;;96.50;47.20;;;;;;;3.94;99.82;99621.15;272500;1276;22264;-84
2024/02/15 20:16:04;;;;;;;65.10;35.40;;;;;;;3.86;100.00;99619.45;272690;1274;22242;-84
2024/02/15 20:22:30;;;;;;;81.40;39.30;;;;;;;3.70;99.97;99620.02;272537;1277;22296;-84
2024/02/15 20:28:53;;;;;;;92.30;46.40;;;;;;;3.50;100.00;99620.06;272675;1275;22229;-83
2024/02/15 20:35:23;;;;;;;85.80;43.90;;;;;;;3.48;100.00;99619.00;272588;1275;22198;-84
2024/02/15 20:41:26;;;;;;;68.10;36.60;;;;;;;3.41;100.00;99617.28;270470;1273;23378;-84
2024/02/15 20:48:12;;;;;;;78.90;39.90;;;;;;;3.34;100.00;99614.55;271772;1274;23150;-84
2024/02/15 20:54:21;;;;;;;74.30;39.00;;;;;;;3.23;100.00;99612.84;270508;1274;23772;-83
2024/02/15 21:00:28;;;;;;;92.20;46.90;;;;;;;3.13;100.00;99613.66;270572;1273;22224;-84
2024/02/15 21:07:14;;;;;;;96.40;50.60;;;;;;;3.05;100.00;99612.47;272340;1275;22244;-84
2024/02/15 21:13:44;;;;;;;95.50;53.30;;;;;;;2.93;100.00;99612.40;271623;1273;22403;-84
2024/02/15 21:20:11;;;;;;;91.90;46.90;;;;;;;2.77;100.00;99612.21;271881;1274;22521;-85
2024/02/15 21:26:52;;;;;;;;;;;;;;;2.67;100.00;99608.20;272434;1275;22935;-84
2024/02/15 21:33:01;;;;;;;80.70;45.00;;;;;;;2.56;100.00;99606.79;272294;1274;22195;-85
2024/02/15 21:39:41;;;;;;;73.20;42.40;;;;;;;2.45;100.00;99598.64;271240;1273;23125;-84
2024/02/15 21:46:19;;;;;;;89.70;46.40;;;;;;;2.38;100.00;99595.30;269764;1273;22588;-83
2024/02/15 21:52:32;;;;;;;87.40;48.80;;;;;;;2.33;100.00;99597.70;271808;1273;22221;-84
2024/02/15 21:58:55;;;;;;;95.50;49.20;;;;;;;2.30;100.00;99599.98;272727;1274;23089;-84
2024/02/15 22:05:41;;;;;;;96.30;50.00;;;;;;;2.21;100.00;99602.23;272599;1274;22189;-84
2024/02/15 22:12:44;;;;;;;91.10;46.50;;;;;;;2.11;100.00;99602.69;272812;1274;22212;-84
2024/02/15 22:18:47;;;;;;;88.20;45.50;;;;;;;1.98;100.00;99603.39;271634;1264;23365;-85
2024/02/15 22:25:08;;;;;;;77.70;43.10;;;;;;;1.91;100.00;99598.34;269392;1275;23249;-83
2024/02/15 22:31:41;;;;;;;87.80;44.30;;;;;;;1.84;100.00;99600.16;272184;1273;22314;-83
2024/02/15 22:38:14;;;;;;;85.30;45.40;;;;;;;1.72;100.00;99599.92;272596;1275;22175;-84
2024/02/15 22:44:57;;;;;;;89.50;44.60;;;;;;;1.63;100.00;99601.23;272488;1274;22239;-84
2024/02/15 22:51:05;;;;;;;84.10;42.50;;;;;;;1.57;100.00;99603.49;272413;1274;22636;-84
2024/02/15 22:57:28;;;;;;;75.80;40.90;;;;;;;1.56;100.00;99607.06;271844;1274;22799;-84
2024/02/15 23:03:30;;;;;;;82.90;42.80;;;;;;;1.50;100.00;99604.80;272352;1274;22383;-84
2024/02/15 23:10:10;;;;;;;83.50;45.70;;;;;;;1.44;100.00;99607.89;271250;1273;22681;-83
2024/02/15 23:16:28;;;;;;;88.40;43.90;;;;;;;1.44;100.00;99602.07;272128;1274;22215;-83
2024/02/15 23:22:30;;;;;;;87.80;47.20;;;;;;;1.40;100.00;99600.75;272131;1262;23555;-83
2024/02/15 23:28:31;;;;;;;84.20;43.60;;;;;;;1.33;100.00;99597.66;272025;1274;22337;-86
2024/02/15 23:35:16;;;;;;;84.40;44.80;;;;;;;1.18;100.00;99598.15;271404;1273;22282;-84
2024/02/15 23:42:19;;;;;;;94.10;45.00;;;;;;;1.08;100.00;99602.65;271997;1274;22192;-83
2024/02/15 23:48:21;;;;;;;95.50;47.50;;;;;;;1.07;100.00;99606.57;272113;1274;23532;-83
2024/02/15 23:54:50;;;;;;;96.70;46.40;;;;;;;1.03;100.00;99607.03;272302;1273;23079;-83
